sensor_id;sensor_type;location;lat;lon;timestamp;temperature;humidity
53282;DHT22;39167;52.794;6.892;2022-08-01T00:00:22;18.70;99.90
53282;DHT22;39167;52.794;6.892;2022-08-01T00:02:48;18.70;99.90
53282;DHT22;39167;52.794;6.892;2022-08-01T00:05:13;18.70;99.90
53282;DHT22;39167;52.794;6.892;2022-08-01T00:07:39;18.70;99.90
53282;DHT22;39167;52.794;6.892;2022-08-01T00:10:08;18.60;99.90
53282;DHT22;39167;52.794;6.892;2022-08-01T00:12:34;18.60;99.90
53282;DHT22;39167;52.794;6.892;2022-08-01T00:15:00;18.70;99.90
53282;DHT22;39167;52.794;6.892;2022-08-01T00:17:25;18.60;99.90
53282;DHT22;39167;52.794;6.892;2022-08-01T00:19:51;18.60;99.90
53282;DHT22;39167;52.794;6.892;2022-08-01T00:22:17;18.60;99.90
53282;DHT22;39167;52.794;6.892;2022-08-01T00:24:43;18.60;99.90
53282;DHT22;39167;52.794;6.892;2022-08-01T00:27:08;18.50;99.90
53282;DHT22;39167;52.794;6.892;2022-08-01T00:29:34;18.50;99.90
53282;DHT22;39167;52.794;6.892;2022-08-01T00:32:00;18.50;99.90
53282;DHT22;39167;52.794;6.892;2022-08-01T00:34:25;18.50;99.90
53282;DHT22;39167;52.794;6.892;2022-08-01T00:36:51;18.50;99.90
53282;DHT22;39167;52.794;6.892;2022-08-01T00:39:17;18.50;99.90
53282;DHT22;39167;52.794;6.892;2022-08-01T00:41:42;18.50;99.90
53282;DHT22;39167;52.794;6.892;2022-08-01T00:44:08;18.50;99.90
53282;DHT22;39167;52.794;6.892;2022-08-01T00:46:34;18.50;99.90
53282;DHT22;39167;52.794;6.892;2022-08-01T00:49:01;18.50;99.90
53282;DHT22;39167;52.794;6.892;2022-08-01T00:51:27;18.50;99.90
53282;DHT22;39167;52.794;6.892;2022-08-01T00:53:53;18.40;99.90
53282;DHT22;39167;52.794;6.892;2022-08-01T00:56:20;18.40;99.90
53282;DHT22;39167;52.794;6.892;2022-08-01T00:58:47;18.40;99.90
53282;DHT22;39167;52.794;6.892;2022-08-01T01:01:13;18.40;99.90
53282;DHT22;39167;52.794;6.892;2022-08-01T01:03:39;18.40;99.90
53282;DHT22;39167;52.794;6.892;2022-08-01T01:06:11;18.40;99.90
53282;DHT22;39167;52.794;6.892;2022-08-01T01:08:48;18.40;99.90
53282;DHT22;39167;52.794;6.892;2022-08-01T01:11:26;18.40;99.90
53282;DHT22;39167;52.794;6.892;2022-08-01T01:14:00;18.40;99.90
53282;DHT22;39167;52.794;6.892;2022-08-01T01:16:29;18.40;99.90
53282;DHT22;39167;52.794;6.892;2022-08-01T01:19:00;18.40;99.90
53282;DHT22;39167;52.794;6.892;2022-08-01T01:24:24;18.40;99.90
53282;DHT22;39167;52.794;6.892;2022-08-01T01:29:48;18.30;99.90
53282;DHT22;39167;52.794;6.892;2022-08-01T01:32:22;18.30;99.90
53282;DHT22;39167;52.794;6.892;2022-08-01T01:34:50;18.30;99.90
53282;DHT22;39167;52.794;6.892;2022-08-01T01:37:18;18.30;99.90
53282;DHT22;39167;52.794;6.892;2022-08-01T01:39:48;18.30;99.90
53282;DHT22;39167;52.794;6.892;2022-08-01T01:42:16;18.30;99.90
53282;DHT22;39167;52.794;6.892;2022-08-01T01:44:44;18.30;99.90
53282;DHT22;39167;52.794;6.892;2022-08-01T01:47:12;18.30;99.90
53282;DHT22;39167;52.794;6.892;2022-08-01T01:49:40;18.30;99.90
53282;DHT22;39167;52.794;6.892;2022-08-01T01:52:07;18.30;99.90
53282;DHT22;39167;52.794;6.892;2022-08-01T01:54:39;18.30;99.90
53282;DHT22;39167;52.794;6.892;2022-08-01T01:57:06;18.30;99.90
53282;DHT22;39167;52.794;6.892;2022-08-01T01:59:36;18.30;99.90
53282;DHT22;39167;52.794;6.892;2022-08-01T02:02:03;18.30;99.90
53282;DHT22;39167;52.794;6.892;2022-08-01T02:04:30;18.30;99.90
53282;DHT22;39167;52.794;6.892;2022-08-01T02:06:59;18.20;99.90
53282;DHT22;39167;52.794;6.892;2022-08-01T02:09:27;18.20;99.90
53282;DHT22;39167;52.794;6.892;2022-08-01T02:11:54;18.30;99.90
53282;DHT22;39167;52.794;6.892;2022-08-01T02:14:22;18.30;99.90
53282;DHT22;39167;52.794;6.892;2022-08-01T02:16:49;18.30;99.90
53282;DHT22;39167;52.794;6.892;2022-08-01T02:19:17;18.30;99.90
53282;DHT22;39167;52.794;6.892;2022-08-01T02:21:49;18.30;99.90
53282;DHT22;39167;52.794;6.892;2022-08-01T02:24:35;18.30;99.90
53282;DHT22;39167;52.794;6.892;2022-08-01T02:27:09;18.20;99.90
53282;DHT22;39167;52.794;6.892;2022-08-01T02:29:45;18.20;99.90
53282;DHT22;39167;52.794;6.892;2022-08-01T02:32:26;18.20;99.90
53282;DHT22;39167;52.794;6.892;2022-08-01T02:34:53;18.20;99.90
53282;DHT22;39167;52.794;6.892;2022-08-01T02:37:21;18.20;99.90
53282;DHT22;39167;52.794;6.892;2022-08-01T02:39:49;18.20;99.90
53282;DHT22;39167;52.794;6.892;2022-08-01T02:42:18;18.10;99.90
53282;DHT22;39167;52.794;6.892;2022-08-01T02:44:46;18.10;99.90
53282;DHT22;39167;52.794;6.892;2022-08-01T02:47:15;18.10;99.90
53282;DHT22;39167;52.794;6.892;2022-08-01T02:49:45;18.10;99.90
53282;DHT22;39167;52.794;6.892;2022-08-01T02:52:16;18.10;99.90
53282;DHT22;39167;52.794;6.892;2022-08-01T02:54:49;18.10;99.90
53282;DHT22;39167;52.794;6.892;2022-08-01T02:57:16;18.10;99.90
53282;DHT22;39167;52.794;6.892;2022-08-01T02:59:44;18.10;99.90
53282;DHT22;39167;52.794;6.892;2022-08-01T03:02:11;18.10;99.90
53282;DHT22;39167;52.794;6.892;2022-08-01T03:04:39;18.10;99.90
53282;DHT22;39167;52.794;6.892;2022-08-01T03:07:07;18.10;99.90
53282;DHT22;39167;52.794;6.892;2022-08-01T03:09:37;18.10;99.90
53282;DHT22;39167;52.794;6.892;2022-08-01T03:12:07;18.10;99.90
53282;DHT22;39167;52.794;6.892;2022-08-01T03:14:36;18.10;99.90
53282;DHT22;39167;52.794;6.892;2022-08-01T03:17:04;18.00;99.90
53282;DHT22;39167;52.794;6.892;2022-08-01T03:19:31;18.00;99.90
53282;DHT22;39167;52.794;6.892;2022-08-01T03:21:59;18.00;99.90
53282;DHT22;39167;52.794;6.892;2022-08-01T03:24:29;18.00;99.90
53282;DHT22;39167;52.794;6.892;2022-08-01T03:26:56;18.00;99.90
53282;DHT22;39167;52.794;6.892;2022-08-01T03:29:25;17.90;99.90
53282;DHT22;39167;52.794;6.892;2022-08-01T03:31:51;18.00;99.90
53282;DHT22;39167;52.794;6.892;2022-08-01T03:34:19;18.00;99.90
53282;DHT22;39167;52.794;6.892;2022-08-01T03:37:05;17.90;99.90
53282;DHT22;39167;52.794;6.892;2022-08-01T03:39:40;17.90;99.90
53282;DHT22;39167;52.794;6.892;2022-08-01T03:42:18;17.90;99.90
53282;DHT22;39167;52.794;6.892;2022-08-01T03:44:59;17.80;99.90
53282;DHT22;39167;52.794;6.892;2022-08-01T03:47:30;17.80;99.90
53282;DHT22;39167;52.794;6.892;2022-08-01T03:49:58;17.80;99.90
53282;DHT22;39167;52.794;6.892;2022-08-01T03:52:26;17.80;99.90
53282;DHT22;39167;52.794;6.892;2022-08-01T03:54:55;17.70;99.90
53282;DHT22;39167;52.794;6.892;2022-08-01T03:57:23;17.70;99.90
53282;DHT22;39167;52.794;6.892;2022-08-01T03:59:49;17.70;99.90
53282;DHT22;39167;52.794;6.892;2022-08-01T04:02:16;17.70;99.90
53282;DHT22;39167;52.794;6.892;2022-08-01T04:04:42;17.70;99.90
53282;DHT22;39167;52.794;6.892;2022-08-01T04:07:28;17.70;99.90
53282;DHT22;39167;52.794;6.892;2022-08-01T04:09:54;17.70;99.90
53282;DHT22;39167;52.794;6.892;2022-08-01T04:12:20;17.60;99.90
53282;DHT22;39167;52.794;6.892;2022-08-01T04:14:47;17.60;99.90
53282;DHT22;39167;52.794;6.892;2022-08-01T04:17:13;17.60;99.90
53282;DHT22;39167;52.794;6.892;2022-08-01T04:19:39;17.60;99.90
53282;DHT22;39167;52.794;6.892;2022-08-01T04:22:05;17.60;99.90
53282;DHT22;39167;52.794;6.892;2022-08-01T04:24:33;17.60;99.90
53282;DHT22;39167;52.794;6.892;2022-08-01T04:27:01;17.60;99.90
53282;DHT22;39167;52.794;6.892;2022-08-01T04:29:30;17.60;99.90
53282;DHT22;39167;52.794;6.892;2022-08-01T04:31:56;17.60;99.90
53282;DHT22;39167;52.794;6.892;2022-08-01T04:34:28;17.60;99.90
53282;DHT22;39167;52.794;6.892;2022-08-01T04:36:56;17.60;99.90
53282;DHT22;39167;52.794;6.892;2022-08-01T04:39:27;17.50;99.90
53282;DHT22;39167;52.794;6.892;2022-08-01T04:41:54;17.50;99.90
53282;DHT22;39167;52.794;6.892;2022-08-01T04:44:24;17.50;99.90
53282;DHT22;39167;52.794;6.892;2022-08-01T04:46:50;17.50;99.90
53282;DHT22;39167;52.794;6.892;2022-08-01T04:49:20;17.50;99.90
53282;DHT22;39167;52.794;6.892;2022-08-01T04:51:53;17.50;99.90
53282;DHT22;39167;52.794;6.892;2022-08-01T04:54:30;17.50;99.90
53282;DHT22;39167;52.794;6.892;2022-08-01T04:56:59;17.50;99.90
53282;DHT22;39167;52.794;6.892;2022-08-01T04:59:26;17.50;99.90
53282;DHT22;39167;52.794;6.892;2022-08-01T05:02:13;17.50;99.90
53282;DHT22;39167;52.794;6.892;2022-08-01T05:04:41;17.50;99.90
53282;DHT22;39167;52.794;6.892;2022-08-01T05:07:07;17.50;99.90
53282;DHT22;39167;52.794;6.892;2022-08-01T05:09:34;17.50;99.90
53282;DHT22;39167;52.794;6.892;2022-08-01T05:12:01;17.50;99.90
53282;DHT22;39167;52.794;6.892;2022-08-01T05:14:28;17.50;99.90
53282;DHT22;39167;52.794;6.892;2022-08-01T05:16:57;17.50;99.90
53282;DHT22;39167;52.794;6.892;2022-08-01T05:19:24;17.50;99.90
53282;DHT22;39167;52.794;6.892;2022-08-01T05:21:49;17.50;99.90
53282;DHT22;39167;52.794;6.892;2022-08-01T05:24:15;17.50;99.90
53282;DHT22;39167;52.794;6.892;2022-08-01T05:26:41;17.40;99.90
53282;DHT22;39167;52.794;6.892;2022-08-01T05:29:06;17.40;99.90
53282;DHT22;39167;52.794;6.892;2022-08-01T05:31:33;17.40;99.90
53282;DHT22;39167;52.794;6.892;2022-08-01T05:34:03;17.40;99.90
53282;DHT22;39167;52.794;6.892;2022-08-01T05:36:29;17.40;99.90
53282;DHT22;39167;52.794;6.892;2022-08-01T05:38:55;17.40;99.90
53282;DHT22;39167;52.794;6.892;2022-08-01T05:41:21;17.40;99.90
53282;DHT22;39167;52.794;6.892;2022-08-01T05:43:47;17.30;99.90
53282;DHT22;39167;52.794;6.892;2022-08-01T05:46:12;17.30;99.90
53282;DHT22;39167;52.794;6.892;2022-08-01T05:48:38;17.40;99.90
53282;DHT22;39167;52.794;6.892;2022-08-01T05:51:04;17.40;99.90
53282;DHT22;39167;52.794;6.892;2022-08-01T05:53:30;17.30;99.90
53282;DHT22;39167;52.794;6.892;2022-08-01T05:55:55;17.40;99.90
53282;DHT22;39167;52.794;6.892;2022-08-01T05:58:22;17.40;99.90
53282;DHT22;39167;52.794;6.892;2022-08-01T06:00:47;17.40;99.90
53282;DHT22;39167;52.794;6.892;2022-08-01T06:03:13;17.30;99.90
53282;DHT22;39167;52.794;6.892;2022-08-01T06:05:40;17.30;99.90
53282;DHT22;39167;52.794;6.892;2022-08-01T06:08:05;17.30;99.90
53282;DHT22;39167;52.794;6.892;2022-08-01T06:10:31;17.30;99.90
53282;DHT22;39167;52.794;6.892;2022-08-01T06:12:57;17.30;99.90
53282;DHT22;39167;52.794;6.892;2022-08-01T06:15:22;17.30;99.90
53282;DHT22;39167;52.794;6.892;2022-08-01T06:17:48;17.20;99.90
53282;DHT22;39167;52.794;6.892;2022-08-01T06:20:14;17.20;99.90
53282;DHT22;39167;52.794;6.892;2022-08-01T06:22:39;17.20;99.90
53282;DHT22;39167;52.794;6.892;2022-08-01T06:25:06;17.20;99.90
53282;DHT22;39167;52.794;6.892;2022-08-01T06:27:34;17.20;99.90
53282;DHT22;39167;52.794;6.892;2022-08-01T06:30:01;17.20;99.90
53282;DHT22;39167;52.794;6.892;2022-08-01T06:32:26;17.20;99.90
53282;DHT22;39167;52.794;6.892;2022-08-01T06:34:53;17.30;99.90
53282;DHT22;39167;52.794;6.892;2022-08-01T06:37:18;17.20;99.90
53282;DHT22;39167;52.794;6.892;2022-08-01T06:39:44;17.30;99.90
53282;DHT22;39167;52.794;6.892;2022-08-01T06:42:10;17.30;99.90
53282;DHT22;39167;52.794;6.892;2022-08-01T06:44:36;17.30;99.90
53282;DHT22;39167;52.794;6.892;2022-08-01T06:47:01;17.30;99.90
53282;DHT22;39167;52.794;6.892;2022-08-01T06:49:27;17.30;99.90
53282;DHT22;39167;52.794;6.892;2022-08-01T06:51:53;17.30;99.90
53282;DHT22;39167;52.794;6.892;2022-08-01T06:54:18;17.30;99.90
53282;DHT22;39167;52.794;6.892;2022-08-01T06:56:44;17.30;99.90
53282;DHT22;39167;52.794;6.892;2022-08-01T06:59:10;17.30;99.90
53282;DHT22;39167;52.794;6.892;2022-08-01T07:01:35;17.30;99.90
53282;DHT22;39167;52.794;6.892;2022-08-01T07:04:02;17.20;99.90
53282;DHT22;39167;52.794;6.892;2022-08-01T07:06:28;17.20;99.90
53282;DHT22;39167;52.794;6.892;2022-08-01T07:08:54;17.10;99.90
53282;DHT22;39167;52.794;6.892;2022-08-01T07:11:21;17.10;99.90
53282;DHT22;39167;52.794;6.892;2022-08-01T07:13:47;17.20;99.90
53282;DHT22;39167;52.794;6.892;2022-08-01T07:16:16;17.20;99.90
53282;DHT22;39167;52.794;6.892;2022-08-01T07:18:42;17.30;99.90
53282;DHT22;39167;52.794;6.892;2022-08-01T07:21:08;17.30;99.90
53282;DHT22;39167;52.794;6.892;2022-08-01T07:23:34;17.30;99.90
53282;DHT22;39167;52.794;6.892;2022-08-01T07:26:00;17.30;99.90
53282;DHT22;39167;52.794;6.892;2022-08-01T07:28:28;17.40;99.90
53282;DHT22;39167;52.794;6.892;2022-08-01T07:30:53;17.50;99.90
53282;DHT22;39167;52.794;6.892;2022-08-01T07:33:19;17.60;99.90
53282;DHT22;39167;52.794;6.892;2022-08-01T07:35:45;17.60;99.90
53282;DHT22;39167;52.794;6.892;2022-08-01T07:38:10;17.60;99.90
53282;DHT22;39167;52.794;6.892;2022-08-01T07:40:36;17.50;99.90
53282;DHT22;39167;52.794;6.892;2022-08-01T07:43:02;17.60;99.90
53282;DHT22;39167;52.794;6.892;2022-08-01T07:45:28;17.60;99.90
53282;DHT22;39167;52.794;6.892;2022-08-01T07:47:53;17.60;99.90
53282;DHT22;39167;52.794;6.892;2022-08-01T07:50:19;17.60;99.90
53282;DHT22;39167;52.794;6.892;2022-08-01T07:52:45;17.50;99.90
53282;DHT22;39167;52.794;6.892;2022-08-01T07:55:11;17.60;99.90
53282;DHT22;39167;52.794;6.892;2022-08-01T07:57:38;17.50;99.90
53282;DHT22;39167;52.794;6.892;2022-08-01T08:00:05;17.50;99.90
53282;DHT22;39167;52.794;6.892;2022-08-01T08:02:32;17.50;99.90
53282;DHT22;39167;52.794;6.892;2022-08-01T08:04:58;17.60;99.90
53282;DHT22;39167;52.794;6.892;2022-08-01T08:07:23;17.60;99.90
53282;DHT22;39167;52.794;6.892;2022-08-01T08:09:49;17.60;99.90
53282;DHT22;39167;52.794;6.892;2022-08-01T08:12:15;17.60;99.90
53282;DHT22;39167;52.794;6.892;2022-08-01T08:14:40;17.60;99.90
53282;DHT22;39167;52.794;6.892;2022-08-01T08:17:06;17.60;99.90
53282;DHT22;39167;52.794;6.892;2022-08-01T08:19:32;17.60;99.90
53282;DHT22;39167;52.794;6.892;2022-08-01T08:22:01;17.60;99.90
53282;DHT22;39167;52.794;6.892;2022-08-01T08:24:27;17.60;99.90
53282;DHT22;39167;52.794;6.892;2022-08-01T08:26:57;17.50;99.90
53282;DHT22;39167;52.794;6.892;2022-08-01T08:29:24;17.50;99.90
53282;DHT22;39167;52.794;6.892;2022-08-01T08:31:54;17.50;99.90
53282;DHT22;39167;52.794;6.892;2022-08-01T08:34:20;17.50;99.90
53282;DHT22;39167;52.794;6.892;2022-08-01T08:36:46;17.50;99.90
53282;DHT22;39167;52.794;6.892;2022-08-01T08:39:12;17.50;99.90
53282;DHT22;39167;52.794;6.892;2022-08-01T08:41:37;17.50;99.90
53282;DHT22;39167;52.794;6.892;2022-08-01T08:44:07;17.60;99.90
53282;DHT22;39167;52.794;6.892;2022-08-01T08:46:34;17.70;99.90
53282;DHT22;39167;52.794;6.892;2022-08-01T08:49:06;17.70;99.90
53282;DHT22;39167;52.794;6.892;2022-08-01T08:51:33;17.80;99.90
53282;DHT22;39167;52.794;6.892;2022-08-01T08:54:00;17.80;99.90
53282;DHT22;39167;52.794;6.892;2022-08-01T08:56:28;17.80;99.90
53282;DHT22;39167;52.794;6.892;2022-08-01T08:58:59;17.90;99.90
53282;DHT22;39167;52.794;6.892;2022-08-01T09:01:25;18.00;99.90
53282;DHT22;39167;52.794;6.892;2022-08-01T09:03:51;18.10;99.90
53282;DHT22;39167;52.794;6.892;2022-08-01T09:06:17;18.10;99.90
53282;DHT22;39167;52.794;6.892;2022-08-01T09:08:43;18.10;99.90
53282;DHT22;39167;52.794;6.892;2022-08-01T09:11:08;18.10;99.90
53282;DHT22;39167;52.794;6.892;2022-08-01T09:13:34;18.20;99.90
53282;DHT22;39167;52.794;6.892;2022-08-01T09:16:00;18.20;99.90
53282;DHT22;39167;52.794;6.892;2022-08-01T09:21:15;18.20;99.90
53282;DHT22;39167;52.794;6.892;2022-08-01T09:23:50;18.20;99.90
53282;DHT22;39167;52.794;6.892;2022-08-01T09:26:19;18.20;99.90
53282;DHT22;39167;52.794;6.892;2022-08-01T09:28:48;18.30;99.90
53282;DHT22;39167;52.794;6.892;2022-08-01T09:31:16;18.40;99.90
53282;DHT22;39167;52.794;6.892;2022-08-01T09:33:50;18.30;99.90
53282;DHT22;39167;52.794;6.892;2022-08-01T09:36:16;18.20;99.90
53282;DHT22;39167;52.794;6.892;2022-08-01T09:38:43;18.20;99.90
53282;DHT22;39167;52.794;6.892;2022-08-01T09:41:09;18.20;99.90
53282;DHT22;39167;52.794;6.892;2022-08-01T09:43:36;18.20;99.90
53282;DHT22;39167;52.794;6.892;2022-08-01T09:46:20;18.20;99.90
53282;DHT22;39167;52.794;6.892;2022-08-01T09:48:58;18.30;99.90
53282;DHT22;39167;52.794;6.892;2022-08-01T09:51:38;18.30;99.90
53282;DHT22;39167;52.794;6.892;2022-08-01T09:54:05;18.30;99.90
53282;DHT22;39167;52.794;6.892;2022-08-01T09:56:39;18.30;99.90
53282;DHT22;39167;52.794;6.892;2022-08-01T09:59:05;18.40;99.90
53282;DHT22;39167;52.794;6.892;2022-08-01T10:01:49;18.60;99.90
53282;DHT22;39167;52.794;6.892;2022-08-01T10:04:20;18.80;99.90
53282;DHT22;39167;52.794;6.892;2022-08-01T10:06:47;18.80;99.90
53282;DHT22;39167;52.794;6.892;2022-08-01T10:09:28;19.00;99.90
53282;DHT22;39167;52.794;6.892;2022-08-01T10:11:55;19.10;99.90
53282;DHT22;39167;52.794;6.892;2022-08-01T10:14:25;19.20;99.90
53282;DHT22;39167;52.794;6.892;2022-08-01T10:16:52;19.30;99.90
53282;DHT22;39167;52.794;6.892;2022-08-01T10:19:21;19.30;99.90
53282;DHT22;39167;52.794;6.892;2022-08-01T10:21:48;19.40;99.90
53282;DHT22;39167;52.794;6.892;2022-08-01T10:24:16;19.30;99.90
53282;DHT22;39167;52.794;6.892;2022-08-01T10:26:44;19.40;99.90
53282;DHT22;39167;52.794;6.892;2022-08-01T10:29:12;19.40;99.90
53282;DHT22;39167;52.794;6.892;2022-08-01T10:31:42;19.50;99.90
53282;DHT22;39167;52.794;6.892;2022-08-01T10:34:07;19.60;99.90
53282;DHT22;39167;52.794;6.892;2022-08-01T10:36:34;19.60;99.90
53282;DHT22;39167;52.794;6.892;2022-08-01T10:39:05;19.60;99.90
53282;DHT22;39167;52.794;6.892;2022-08-01T10:41:33;19.70;99.90
53282;DHT22;39167;52.794;6.892;2022-08-01T10:44:00;19.80;99.90
53282;DHT22;39167;52.794;6.892;2022-08-01T10:46:27;19.90;99.90
53282;DHT22;39167;52.794;6.892;2022-08-01T10:49:03;19.90;99.90
53282;DHT22;39167;52.794;6.892;2022-08-01T10:51:30;20.00;99.90
53282;DHT22;39167;52.794;6.892;2022-08-01T10:53:56;20.00;99.90
53282;DHT22;39167;52.794;6.892;2022-08-01T10:56:23;20.10;99.90
53282;DHT22;39167;52.794;6.892;2022-08-01T10:58:49;20.00;99.90
53282;DHT22;39167;52.794;6.892;2022-08-01T11:01:28;20.00;99.90
53282;DHT22;39167;52.794;6.892;2022-08-01T11:09:04;19.90;99.90
53282;DHT22;39167;52.794;6.892;2022-08-01T11:11:31;20.00;99.90
53282;DHT22;39167;52.794;6.892;2022-08-01T11:16:46;19.90;99.90
53282;DHT22;39167;52.794;6.892;2022-08-01T11:19:11;19.90;99.90
53282;DHT22;39167;52.794;6.892;2022-08-01T11:27:28;19.90;99.90
53282;DHT22;39167;52.794;6.892;2022-08-01T11:35:14;20.20;99.90
53282;DHT22;39167;52.794;6.892;2022-08-01T11:37:40;20.20;99.90
53282;DHT22;39167;52.794;6.892;2022-08-01T11:40:28;20.20;99.90
53282;DHT22;39167;52.794;6.892;2022-08-01T11:45:53;20.30;99.90
53282;DHT22;39167;52.794;6.892;2022-08-01T11:48:22;20.40;99.90
53282;DHT22;39167;52.794;6.892;2022-08-01T11:50:50;20.40;99.90
53282;DHT22;39167;52.794;6.892;2022-08-01T11:53:16;20.50;99.90
53282;DHT22;39167;52.794;6.892;2022-08-01T11:55:48;20.50;99.90
53282;DHT22;39167;52.794;6.892;2022-08-01T11:58:15;20.60;99.90
53282;DHT22;39167;52.794;6.892;2022-08-01T12:00:42;20.50;99.90
53282;DHT22;39167;52.794;6.892;2022-08-01T12:03:15;20.50;99.90
53282;DHT22;39167;52.794;6.892;2022-08-01T12:05:44;20.50;99.90
53282;DHT22;39167;52.794;6.892;2022-08-01T12:08:09;20.50;99.90
53282;DHT22;39167;52.794;6.892;2022-08-01T12:10:36;20.40;99.90
53282;DHT22;39167;52.794;6.892;2022-08-01T12:13:04;20.40;99.90
53282;DHT22;39167;52.794;6.892;2022-08-01T12:15:35;20.40;99.90
53282;DHT22;39167;52.794;6.892;2022-08-01T12:18:03;20.50;99.90
53282;DHT22;39167;52.794;6.892;2022-08-01T12:20:38;20.60;99.90
53282;DHT22;39167;52.794;6.892;2022-08-01T12:23:06;20.70;99.90
53282;DHT22;39167;52.794;6.892;2022-08-01T12:25:33;20.80;99.90
53282;DHT22;39167;52.794;6.892;2022-08-01T12:28:02;20.90;99.90
53282;DHT22;39167;52.794;6.892;2022-08-01T12:30:29;21.00;99.90
53282;DHT22;39167;52.794;6.892;2022-08-01T12:33:05;21.00;99.90
53282;DHT22;39167;52.794;6.892;2022-08-01T12:35:31;20.80;99.90
53282;DHT22;39167;52.794;6.892;2022-08-01T12:37:59;20.70;99.90
53282;DHT22;39167;52.794;6.892;2022-08-01T12:40:33;20.70;99.90
53282;DHT22;39167;52.794;6.892;2022-08-01T12:43:05;20.80;99.90
53282;DHT22;39167;52.794;6.892;2022-08-01T12:45:37;20.80;99.90
53282;DHT22;39167;52.794;6.892;2022-08-01T12:48:15;20.80;99.90
53282;DHT22;39167;52.794;6.892;2022-08-01T12:50:44;20.80;99.90
53282;DHT22;39167;52.794;6.892;2022-08-01T12:53:10;20.90;99.90
53282;DHT22;39167;52.794;6.892;2022-08-01T12:55:46;20.90;99.90
53282;DHT22;39167;52.794;6.892;2022-08-01T12:58:14;20.80;99.90
53282;DHT22;39167;52.794;6.892;2022-08-01T13:00:42;20.80;99.90
53282;DHT22;39167;52.794;6.892;2022-08-01T13:03:14;20.70;99.90
53282;DHT22;39167;52.794;6.892;2022-08-01T13:08:16;20.80;99.90
53282;DHT22;39167;52.794;6.892;2022-08-01T13:10:43;20.90;99.90
53282;DHT22;39167;52.794;6.892;2022-08-01T13:13:10;20.90;99.90
53282;DHT22;39167;52.794;6.892;2022-08-01T13:15:38;20.90;99.90
53282;DHT22;39167;52.794;6.892;2022-08-01T13:18:26;20.80;99.90
53282;DHT22;39167;52.794;6.892;2022-08-01T13:23:37;20.80;99.90
53282;DHT22;39167;52.794;6.892;2022-08-01T13:26:04;20.70;99.90
53282;DHT22;39167;52.794;6.892;2022-08-01T13:28:30;20.70;99.90
53282;DHT22;39167;52.794;6.892;2022-08-01T13:31:04;20.80;99.90
53282;DHT22;39167;52.794;6.892;2022-08-01T13:33:45;20.90;99.90
53282;DHT22;39167;52.794;6.892;2022-08-01T13:36:11;21.00;99.90
53282;DHT22;39167;52.794;6.892;2022-08-01T13:38:38;21.10;99.90
53282;DHT22;39167;52.794;6.892;2022-08-01T13:41:22;21.20;99.90
53282;DHT22;39167;52.794;6.892;2022-08-01T13:43:48;21.30;99.90
53282;DHT22;39167;52.794;6.892;2022-08-01T13:46:14;21.40;99.90
53282;DHT22;39167;52.794;6.892;2022-08-01T13:48:39;21.50;99.90
53282;DHT22;39167;52.794;6.892;2022-08-01T13:51:05;21.60;99.90
53282;DHT22;39167;52.794;6.892;2022-08-01T13:53:31;21.60;99.90
53282;DHT22;39167;52.794;6.892;2022-08-01T13:55:57;21.50;99.90
53282;DHT22;39167;52.794;6.892;2022-08-01T13:58:22;21.60;99.90
53282;DHT22;39167;52.794;6.892;2022-08-01T14:00:48;21.60;99.90
53282;DHT22;39167;52.794;6.892;2022-08-01T14:03:14;21.70;99.90
53282;DHT22;39167;52.794;6.892;2022-08-01T14:05:45;21.70;99.90
53282;DHT22;39167;52.794;6.892;2022-08-01T14:08:11;21.70;99.90
53282;DHT22;39167;52.794;6.892;2022-08-01T14:10:37;21.70;99.90
53282;DHT22;39167;52.794;6.892;2022-08-01T14:13:03;21.80;99.90
53282;DHT22;39167;52.794;6.892;2022-08-01T14:15:30;21.80;99.90
53282;DHT22;39167;52.794;6.892;2022-08-01T14:17:56;21.90;99.90
53282;DHT22;39167;52.794;6.892;2022-08-01T14:20:22;22.00;99.90
53282;DHT22;39167;52.794;6.892;2022-08-01T14:22:48;22.10;99.90
53282;DHT22;39167;52.794;6.892;2022-08-01T14:25:14;22.10;99.90
53282;DHT22;39167;52.794;6.892;2022-08-01T14:27:40;22.20;99.90
53282;DHT22;39167;52.794;6.892;2022-08-01T14:30:08;22.10;99.90
53282;DHT22;39167;52.794;6.892;2022-08-01T14:32:34;21.90;99.90
53282;DHT22;39167;52.794;6.892;2022-08-01T14:35:01;21.90;99.90
53282;DHT22;39167;52.794;6.892;2022-08-01T14:37:27;21.90;99.90
53282;DHT22;39167;52.794;6.892;2022-08-01T14:39:55;21.90;99.90
53282;DHT22;39167;52.794;6.892;2022-08-01T14:42:20;22.00;99.90
53282;DHT22;39167;52.794;6.892;2022-08-01T14:44:46;22.20;99.90
53282;DHT22;39167;52.794;6.892;2022-08-01T14:47:12;22.30;99.90
53282;DHT22;39167;52.794;6.892;2022-08-01T14:49:38;22.30;99.90
53282;DHT22;39167;52.794;6.892;2022-08-01T14:52:03;22.50;99.90
53282;DHT22;39167;52.794;6.892;2022-08-01T14:54:29;22.60;99.90
53282;DHT22;39167;52.794;6.892;2022-08-01T14:56:55;22.70;99.90
53282;DHT22;39167;52.794;6.892;2022-08-01T14:59:21;22.80;99.90
53282;DHT22;39167;52.794;6.892;2022-08-01T15:01:47;22.90;99.90
53282;DHT22;39167;52.794;6.892;2022-08-01T15:04:12;22.90;99.90
53282;DHT22;39167;52.794;6.892;2022-08-01T15:06:38;22.90;99.90
53282;DHT22;39167;52.794;6.892;2022-08-01T15:09:04;22.70;99.90
53282;DHT22;39167;52.794;6.892;2022-08-01T15:11:29;22.50;99.90
53282;DHT22;39167;52.794;6.892;2022-08-01T15:13:55;22.40;99.90
53282;DHT22;39167;52.794;6.892;2022-08-01T15:16:39;22.30;99.90
53282;DHT22;39167;52.794;6.892;2022-08-01T15:19:05;22.20;99.90
53282;DHT22;39167;52.794;6.892;2022-08-01T15:21:31;22.10;99.90
53282;DHT22;39167;52.794;6.892;2022-08-01T15:23:56;22.10;99.90
53282;DHT22;39167;52.794;6.892;2022-08-01T15:26:22;22.00;99.90
53282;DHT22;39167;52.794;6.892;2022-08-01T15:28:48;22.00;99.90
53282;DHT22;39167;52.794;6.892;2022-08-01T15:31:13;22.10;99.90
53282;DHT22;39167;52.794;6.892;2022-08-01T15:33:39;22.10;99.90
53282;DHT22;39167;52.794;6.892;2022-08-01T15:36:05;22.20;99.90
53282;DHT22;39167;52.794;6.892;2022-08-01T15:38:31;22.20;99.90
53282;DHT22;39167;52.794;6.892;2022-08-01T15:40:56;22.10;99.90
53282;DHT22;39167;52.794;6.892;2022-08-01T15:43:22;21.90;99.90
53282;DHT22;39167;52.794;6.892;2022-08-01T15:45:48;21.80;99.90
53282;DHT22;39167;52.794;6.892;2022-08-01T15:48:14;21.90;99.90
53282;DHT22;39167;52.794;6.892;2022-08-01T15:50:40;22.00;99.90
53282;DHT22;39167;52.794;6.892;2022-08-01T15:53:06;22.10;99.90
53282;DHT22;39167;52.794;6.892;2022-08-01T15:55:34;22.30;99.90
53282;DHT22;39167;52.794;6.892;2022-08-01T15:58:00;22.30;99.90
53282;DHT22;39167;52.794;6.892;2022-08-01T16:00:26;22.30;99.90
53282;DHT22;39167;52.794;6.892;2022-08-01T16:02:52;22.30;99.90
53282;DHT22;39167;52.794;6.892;2022-08-01T16:05:17;22.40;99.90
53282;DHT22;39167;52.794;6.892;2022-08-01T16:07:43;22.40;99.90
53282;DHT22;39167;52.794;6.892;2022-08-01T16:10:09;22.30;99.90